Latest Weather Observations for Viewbank

IDV60801

Issued at 9:02 pm EST Friday 31 July 2015 (issued every 30 minutes, with the page automatically refreshed every 10 minutes)

About weather observations | Map of weather stations | Latest weather observations for VIC | Other Formats
Station Details ID: 086068 Name: VIEWBANK Lat: -37.74 Lon: 145.10 Height: 66.1 m
Data from the previous 72 hours. | See also: Recent months at Viewbank
Date/Time
EST
Temp
°C
App
Temp
°C
Dew
Point
Rel
Hum
%
Delta-T
°C
Wind Press
QNH
hPa
Press
MSL
hPa
Rain
since 9 am
mm
Dir
 
Spd
km/h
Gust
km/h
Spd
kts
Gust
kts
31/09:00pm 10.2 4.9 2.8 60 3.2 NNE 20 39 11 21 1015.2 1015.3 0.0
31/08:30pm 9.2 5.6 2.8 64 2.7 NNE 11 28 6 15 1015.5 1015.6 0.0
31/08:00pm 8.5 5.6 2.5 66 2.5 NE 7 13 4 7 1015.5 1015.6 0.0
31/07:30pm 9.8 5.8 2.6 61 3.1 NNE 13 28 7 15 1015.6 1015.7 0.0
31/07:00pm 10.0 6.0 2.6 60 3.2 N 13 28 7 15 1016.2 1016.3 0.0
31/06:30pm 10.2 5.9 3.0 61 3.1 N 15 24 8 13 1016.4 1016.5 0.0
31/06:00pm 10.6 5.9 3.2 60 3.2 N 17 28 9 15 1016.1 1016.2 0.0
31/05:30pm 10.6 6.2 2.9 59 3.3 N 15 26 8 14 1015.9 1016.0 0.0
31/05:00pm 11.5 6.4 2.8 55 3.8 N 19 39 10 21 1015.9 1016.0 0.0
31/04:30pm 11.8 6.7 3.3 56 3.8 NNW 19 30 10 16 1015.9 1016.0 0.0
31/04:00pm 12.1 6.4 3.1 54 4.0 N 22 37 12 20 1016.5 1016.6 0.0
31/03:30pm 12.7 7.9 2.6 50 4.4 N 17 32 9 17 1016.7 1016.8 0.0
31/03:00pm 13.0 8.1 2.3 48 4.7 NNW 17 26 9 14 1016.9 1017.0 0.0
31/02:30pm 13.0 9.8 2.8 50 4.5 N 9 30 5 16 1017.1 1017.2 0.0
31/02:00pm 12.1 7.9 1.4 48 4.5 N 13 20 7 11 1017.7 1017.8 0.0
31/01:30pm 12.6 9.3 2.5 50 4.4 N 9 19 5 10 1018.3 1018.4 0.0
31/01:00pm 12.3 9.0 2.7 52 4.2 NNW 9 15 5 8 1018.9 1019.0 0.0
31/12:30pm 11.7 7.9 1.9 51 4.2 N 11 20 6 11 1019.6 1019.7 0.0
31/12:00pm 11.8 8.8 2.3 52 4.1 N 7 13 4 7 1020.6 1020.7 0.0
31/11:30am 11.2 8.3 2.8 56 3.7 NW 7 15 4 8 1021.1 1021.2 0.0
31/11:00am 10.7 8.4 5.0 68 2.6 NNE 6 13 3 7 1021.6 1021.7 0.0
31/10:30am 9.6 7.3 5.6 76 1.8 NNE 7 13 4 7 1021.6 1021.7 0.0
31/10:00am 7.4 5.2 5.5 88 0.8 NNE 6 13 3 7 1021.7 1021.8 0.0
31/09:30am 5.8 3.5 5.7 99 0.0 NE 7 11 4 6 1021.4 1021.5 0.0
31/09:00am 4.3 2.7 4.3 100 0.0 NE 2 7 1 4 1021.6 1021.7 0.8
31/08:30am 2.8 0.5 2.8 100 0.0 NNE 4 6 2 3 1021.4 1021.5 0.8
31/08:00am 2.4 0.0 2.4 100 0.0 NNE 4 9 2 5 1021.4 1021.5 0.8
31/07:30am 2.1 -0.7 2.1 100 0.0 NNW 6 11 3 6 1020.9 1021.0 0.8
31/07:00am 2.7 0.4 2.7 100 0.0 NNE 4 7 2 4 1020.4 1020.5 0.8
31/06:30am 3.3 0.7 3.3 100 0.0 NNE 6 7 3 4 1020.2 1020.3 0.8
31/06:00am 3.3 1.9 3.3 100 0.0 CALM 0 6 0 3 1020.0 1020.1 0.8
31/05:30am 3.8 1.7 3.8 100 0.0 NNE 4 7 2 4 1019.7 1019.8 0.8
31/05:00am 4.0 1.5 3.9 99 0.0 N 6 7 3 4 1019.6 1019.7 0.6
31/04:30am 5.0 2.5 4.9 99 0.0 N 7 9 4 5 1019.2 1019.3 0.6
31/04:00am 5.2 3.3 5.1 99 0.0 NNW 4 6 2 3 1019.1 1019.2 0.6
31/03:30am 5.3 3.1 5.2 99 0.0 WNW 6 7 3 4 1019.0 1019.1 0.6
31/03:00am 5.9 3.8 5.8 99 0.0 WNW 6 7 3 4 1019.0 1019.1 0.6
31/02:30am 6.3 4.6 5.9 97 0.2 WNW 4 7 2 4 1019.2 1019.3 0.6
31/02:00am 6.9 5.7 6.3 96 0.3 NW 2 7 1 4 1018.9 1019.0 0.6
31/01:30am 7.2 4.5 5.7 90 0.7 WNW 9 15 5 8 1018.8 1018.9 0.6
31/01:00am 7.6 5.7 6.5 93 0.5 WNW 6 11 3 6 1018.7 1018.8 0.6
31/12:30am 8.0 6.1 7.6 97 0.2 NNW 7 9 4 5 1018.6 1018.7 0.6
31/12:00am 8.3 5.9 7.2 93 0.5 NNW 9 13 5 7 1018.5 1018.6 0.6
 
Date/Time
EST
Temp
°C
App
Temp
°C
Dew
Point
Rel
Hum
%
Delta-T
°C
Wind Press
QNH
hPa
Press
MSL
hPa
Rain
since 9 am
mm
Dir
 
Spd
km/h
Gust
km/h
Spd
kts
Gust
kts
30/11:30pm 8.8 5.9 6.6 86 1.0 NW 11 19 6 10 1018.4 1018.5 0.6
30/11:00pm 9.0 6.6 6.8 86 1.0 WNW 9 15 5 8 1018.2 1018.3 0.6
30/10:30pm 8.9 5.6 8.1 95 0.4 NW 15 20 8 11 1018.2 1018.3 0.6
30/10:00pm 8.9 5.7 8.5 97 0.2 NW 15 24 8 13 1018.0 1018.1 0.6
30/09:30pm 9.3 4.9 7.6 89 0.8 NNW 20 37 11 20 1017.3 1017.4 0.4
30/09:00pm 9.7 5.1 6.6 81 1.4 N 20 33 11 18 1016.6 1016.7 0.2
30/08:30pm 9.7 3.5 6.2 79 1.6 NNW 28 54 15 29 1016.2 1016.3 0.2
30/08:00pm 10.1 2.8 5.3 72 2.2 N 33 57 18 31 1015.5 1015.6 0.2
30/07:30pm 10.4 3.2 4.8 68 2.5 N 32 52 17 28 1015.2 1015.3 0.2
30/07:00pm 10.6 3.1 4.3 65 2.8 N 33 57 18 31 1014.6 1014.7 0.2
30/06:30pm 10.8 3.2 3.8 62 3.1 N 33 70 18 38 1014.3 1014.4 0.2
30/06:00pm 11.2 3.4 2.8 56 3.7 N 33 56 18 30 1013.7 1013.7 0.2
30/05:30pm 11.3 3.7 2.9 56 3.7 N 32 59 17 32 1013.0 1013.0 0.2
30/05:00pm 11.4 3.8 2.7 55 3.8 N 32 57 17 31 1012.3 1012.3 0.2
30/04:30pm 11.4 3.6 2.7 55 3.8 N 33 57 18 31 1012.5 1012.5 0.2
30/04:00pm 11.7 4.4 2.2 52 4.1 N 30 59 16 32 1012.7 1012.7 0.2
30/03:30pm 11.2 4.5 3.5 59 3.4 N 28 50 15 27 1013.5 1013.5 0.2
30/03:11pm 11.1 4.4 3.6 60 3.3 N 28 56 15 30 1013.6 1013.6 0.2
30/03:00pm 10.9 5.0 3.9 62 3.1 N 24 39 13 21 1014.4 1014.5 0.2
30/02:30pm 10.7 3.7 4.0 63 3.0 N 30 48 16 26 1014.8 1014.9 0.2
30/02:26pm 10.8 4.1 3.8 62 3.1 N 28 48 15 26 1014.6 1014.7 0.2
30/02:00pm 10.6 4.7 3.9 63 3.0 NNE 24 48 13 26 1014.5 1014.6 0.2
30/01:36pm 10.6 4.0 4.1 64 2.9 NNE 28 48 15 26 1015.4 1015.5 0.2
30/01:30pm 10.3 4.1 4.2 66 2.7 NNE 26 59 14 32 1015.4 1015.5 0.2
30/01:19pm 9.8 3.3 4.6 70 2.3 N 28 54 15 29 1016.2 1016.3 0.2
30/01:00pm 10.4 4.5 4.1 65 2.8 N 24 48 13 26 1016.9 1017.0 0.0
30/12:30pm 10.9 3.5 4.1 63 3.0 N 32 57 17 31 1017.6 1017.7 0.0
30/12:04pm 10.8 4.1 3.4 60 3.3 N 28 48 15 26 1018.5 1018.6 0.0
30/12:00pm 10.9 5.0 3.7 61 3.2 N 24 48 13 26 1018.7 1018.8 0.0
30/11:30am 11.0 4.2 3.3 59 3.4 N 28 65 15 35 1018.4 1018.5 0.0
30/11:00am 11.1 4.4 3.9 61 3.2 N 28 50 15 27 1019.7 1019.8 0.0
30/10:30am 11.6 4.3 4.6 62 3.2 N 32 54 17 29 1020.6 1020.7 0.0
30/10:00am 10.4 3.3 3.4 62 3.1 N 30 52 16 28 1021.2 1021.3 0.0
30/09:34am 10.3 3.5 3.3 62 3.1 N 28 46 15 25 1020.9 1021.0 0.0
30/09:30am 10.3 4.3 3.3 62 3.1 N 24 46 13 25 1020.9 1021.0 0.0
30/09:00am 10.0 4.1 3.7 65 2.8 NNE 24 43 13 23 1020.8 1020.9 0.0
30/08:30am 9.6 4.6 3.6 66 2.6 NNE 19 41 10 22 1020.8 1020.9 0.0
30/08:00am 9.3 4.6 3.3 66 2.6 NNE 17 35 9 19 1020.9 1021.0 0.0
30/07:30am 8.9 4.6 3.5 69 2.3 NNE 15 33 8 18 1020.9 1021.0 0.0
30/07:00am 8.5 4.7 3.8 72 2.0 NNE 13 26 7 14 1021.3 1021.4 0.0
30/06:30am 8.6 4.0 3.8 72 2.1 NNE 17 30 9 16 1021.6 1021.7 0.0
30/06:00am 8.5 3.9 3.9 73 2.0 NNE 17 33 9 18 1021.9 1022.0 0.0
30/05:30am 8.6 3.7 4.0 73 2.0 NNE 19 32 10 17 1022.0 1022.1 0.0
30/05:00am 8.8 3.6 3.8 71 2.2 NNE 20 37 11 20 1022.3 1022.4 0.0
30/04:30am 8.6 4.7 3.6 71 2.2 NNE 13 26 7 14 1022.7 1022.8 0.0
30/04:00am 8.3 4.0 3.4 71 2.1 NNE 15 24 8 13 1023.2 1023.3 0.0
30/03:30am 8.8 4.5 3.4 69 2.3 N 15 28 8 15 1023.3 1023.4 0.0
30/03:00am 8.5 4.3 3.8 72 2.0 NNE 15 32 8 17 1023.3 1023.4 0.0
30/02:30am 8.0 4.5 3.5 73 1.9 NNE 11 20 6 11 1024.3 1024.4 0.0
30/02:00am 7.7 4.9 3.2 73 1.9 NNE 7 13 4 7 1024.9 1025.0 0.0
30/01:30am 7.9 5.1 3.2 72 2.0 NNE 7 13 4 7 1025.2 1025.3 0.0
30/01:00am 8.2 5.1 3.5 72 2.0 NNE 9 15 5 8 1025.5 1025.6 0.0
30/12:30am 7.8 5.3 4.0 77 1.6 NNE 6 11 3 6 1026.0 1026.1 0.0
30/12:00am 8.4 6.4 4.2 75 1.8 NNE 4 9 2 5 1026.7 1026.9 0.0
 
Date/Time
EST
Temp
°C
App
Temp
°C
Dew
Point
Rel
Hum
%
Delta-T
°C
Wind Press
QNH
hPa
Press
MSL
hPa
Rain
since 9 am
mm
Dir
 
Spd
km/h
Gust
km/h
Spd
kts
Gust
kts
29/11:30pm 8.5 5.9 4.3 75 1.8 NNE 7 13 4 7 1026.9 1027.1 0.0
29/11:00pm 8.6 6.3 4.6 76 1.8 NNE 6 11 3 6 1027.1 1027.3 0.0
29/10:30pm 8.5 6.6 4.9 78 1.6 NNE 4 7 2 4 1027.3 1027.5 0.0
29/10:00pm 8.8 6.5 4.8 76 1.8 NNE 6 9 3 5 1027.7 1027.9 0.0
29/09:30pm 9.0 7.8 4.6 74 2.0 CALM 0 0 0 0 1027.9 1028.1 0.0
29/09:00pm 9.3 7.4 4.7 73 2.0 NNE 4 11 2 6 1027.9 1028.1 0.0
29/08:30pm 9.3 7.0 4.7 73 2.1 NNE 6 9 3 5 1028.1 1028.2 0.0
29/08:00pm 9.6 7.3 4.6 71 2.2 NE 6 9 3 5 1028.4 1028.5 0.0
29/07:30pm 10.0 7.1 4.8 70 2.3 N 9 20 5 11 1028.6 1028.7 0.0
29/07:00pm 10.0 7.1 4.6 69 2.4 NNE 9 17 5 9 1028.5 1028.6 0.0
29/06:30pm 9.9 6.9 4.3 68 2.5 NNE 9 19 5 10 1028.5 1028.6 0.0
29/06:00pm 10.1 6.4 4.3 67 2.6 NNE 13 24 7 13 1028.2 1028.3 0.0
29/05:30pm 10.2 6.9 4.4 67 2.6 NNE 11 19 6 10 1028.3 1028.4 0.0
29/05:00pm 10.6 6.0 3.9 63 2.9 N 17 32 9 17 1028.5 1028.6 0.0
29/04:30pm 10.9 7.1 3.9 62 3.1 NNE 13 24 7 13 1028.3 1028.4 0.0
29/04:00pm 11.2 7.0 3.7 60 3.3 N 15 24 8 13 1028.6 1028.7 0.0
29/03:30pm 11.4 7.9 3.4 58 3.5 NNE 11 22 6 12 1028.9 1029.0 0.0
29/03:00pm 11.5 7.1 4.5 62 3.1 N 17 28 9 15 1029.4 1029.5 0.0
29/02:30pm 11.4 6.4 3.4 58 3.5 N 19 30 10 16 1029.6 1029.7 0.0
29/02:00pm 12.1 6.6 3.9 57 3.7 N 22 37 12 20 1030.0 1030.1 0.0
29/01:30pm 11.9 6.4 4.2 59 3.5 N 22 35 12 19 1030.3 1030.4 0.0
29/01:00pm 11.6 6.1 3.9 59 3.4 N 22 37 12 20 1030.4 1030.5 0.0
29/12:30pm 12.1 7.7 4.8 61 3.3 N 17 28 9 15 1031.4 1031.5 0.0
29/12:00pm 12.1 8.1 5.0 62 3.2 N 15 26 8 14 1032.1 1032.2 0.0
29/11:30am 12.4 7.6 4.4 58 3.6 NNW 19 28 10 15 1032.3 1032.4 0.0
29/11:00am 12.6 8.9 4.6 58 3.6 N 13 22 7 12 1032.6 1032.7 0.0
29/10:30am 12.2 8.9 6.3 67 2.8 NNW 13 20 7 11 1032.8 1032.9 0.0
29/10:00am 10.8 7.8 5.8 71 2.3 NNW 11 19 6 10 1033.2 1033.3 0.0
29/09:30am 10.0 7.7 5.8 75 1.9 N 7 15 4 8 1033.4 1033.5 0.0
29/09:00am 8.5 6.7 7.3 92 0.6 NE 6 9 3 5 1033.4 1033.5 0.0
29/08:30am 7.6 7.0 7.6 100 0.0 CALM 0 6 0 3 1033.6 1033.7 0.0
29/08:00am 7.3 6.7 7.3 100 0.0 CALM 0 0 0 0 1033.3 1033.4 0.0
29/07:30am 6.8 6.1 6.8 100 0.0 CALM 0 0 0 0 1033.0 1033.1 0.0
29/07:00am 7.4 6.8 7.3 99 0.0 CALM 0 0 0 0 1032.8 1032.9 0.0
29/06:30am 7.9 7.4 7.8 99 0.0 CALM 0 0 0 0 1032.9 1033.0 0.0
29/06:00am 7.7 6.4 7.7 100 0.0 ENE 4 7 2 4 1032.8 1032.9 0.0
29/05:30am 7.8 6.0 7.8 100 0.0 ENE 7 7 4 4 1032.6 1032.7 0.0
29/05:00am 7.9 7.0 7.8 99 0.0 NNW 2 7 1 4 1032.4 1032.5 0.0
29/04:30am 8.1 6.9 8.0 99 0.0 NE 4 9 2 5 1032.7 1032.8 0.0
29/04:00am 8.2 7.8 8.1 99 0.0 CALM 0 0 0 0 1032.7 1032.8 0.0
29/03:30am 8.1 6.5 8.0 99 0.0 ENE 6 7 3 4 1032.8 1032.9 0.0
29/03:00am 8.0 6.2 8.0 100 0.0 NE 7 9 4 5 1033.0 1033.1 0.0
29/02:30am 8.3 7.9 8.2 99 0.0 CALM 0 0 0 0 1033.4 1033.5 0.0
29/02:00am 8.5 7.8 8.4 99 0.0 NNE 2 6 1 3 1033.2 1033.3 0.0
29/01:30am 8.4 7.6 8.3 99 0.0 NE 2 6 1 3 1033.0 1033.1 0.0
29/01:00am 8.6 8.3 8.5 99 0.0 CALM 0 6 0 3 1033.1 1033.2 0.0
29/12:30am 8.6 7.1 8.5 99 0.0 NNE 6 7 3 4 1033.8 1033.9 0.0
29/12:00am 8.9 8.2 8.6 98 0.1 N 2 7 1 4 1034.1 1034.2 0.0
 
Date/Time
EST
Temp
°C
App
Temp
°C
Dew
Point
Rel
Hum
%
Delta-T
°C
Wind Press
QNH
hPa
Press
MSL
hPa
Rain
since 9 am
mm
Dir
 
Spd
km/h
Gust
km/h
Spd
kts
Gust
kts
28/11:30pm 8.6 8.2 8.3 98 0.1 CALM 0 6 0 3 1033.9 1034.0 0.0
28/11:00pm 8.6 7.9 8.5 99 0.0 SSE 2 7 1 4 1034.0 1034.1 0.0
28/10:30pm 9.1 8.8 8.5 96 0.3 CALM 0 0 0 0 1034.2 1034.3 0.0
28/10:00pm 9.2 8.4 8.3 94 0.4 N 2 6 1 3 1034.2 1034.3 0.0
28/09:30pm 8.8 8.4 8.4 97 0.2 CALM 0 0 0 0 1034.2 1034.3 0.0

Other Formats:

Comma delimited format used in spreadsheet applications
http://www.bom.gov.au/fwo/IDV60801/IDV60801.95874.axf

JavaScript Object Notation format (JSON) in row-major order
http://www.bom.gov.au/fwo/IDV60801/IDV60801.95874.json